createdAt,value
2022-09-20T00:01:18.028Z,9.93
2022-09-20T00:03:46.433Z,9.89
2022-09-20T00:06:16.328Z,9.90
2022-09-20T00:08:44.500Z,9.84
2022-09-20T00:11:15.485Z,9.77
2022-09-20T00:13:44.325Z,9.80
2022-09-20T00:16:15.926Z,9.78
2022-09-20T00:18:42.776Z,9.76
2022-09-20T00:21:17.125Z,9.73
2022-09-20T00:23:44.241Z,9.71
2022-09-20T00:26:11.256Z,9.72
2022-09-20T00:28:37.801Z,9.69
2022-09-20T00:31:04.927Z,9.67
2022-09-20T00:33:50.216Z,9.68
2022-09-20T00:36:16.736Z,9.57
2022-09-20T00:38:43.292Z,9.70
2022-09-20T00:41:10.301Z,9.71
2022-09-20T00:43:45.639Z,9.74
2022-09-20T00:46:27.361Z,9.74
2022-09-20T00:48:59.461Z,9.76
2022-09-20T00:51:29.908Z,9.77
2022-09-20T00:53:59.183Z,9.72
2022-09-20T00:56:31.279Z,9.81
2022-09-20T00:59:27.107Z,9.84
2022-09-20T01:02:03.157Z,9.70
2022-09-20T01:04:30.388Z,9.88
2022-09-20T01:07:01.902Z,9.88
2022-09-20T01:09:28.678Z,9.90
2022-09-20T01:11:57.702Z,9.92
2022-09-20T01:14:26.509Z,9.89
2022-09-20T01:16:56.155Z,9.93
2022-09-20T01:19:37.882Z,9.98
2022-09-20T01:22:14.038Z,10.01
2022-09-20T01:25:00.443Z,9.91
2022-09-20T01:27:42.037Z,10.04
2022-09-20T01:30:13.526Z,10.03
2022-09-20T01:32:54.767Z,10.04
2022-09-20T01:35:25.453Z,10.05
2022-09-20T01:38:13.812Z,9.99
2022-09-20T01:40:56.610Z,10.09
2022-09-20T01:43:35.744Z,10.10
2022-09-20T01:46:32.476Z,10.10
2022-09-20T01:49:37.740Z,10.11
2022-09-20T01:52:41.592Z,10.13
2022-09-20T01:55:42.186Z,10.13
2022-09-20T01:58:33.351Z,10.13
2022-09-20T02:01:05.894Z,10.13
2022-09-20T02:03:54.049Z,10.12
2022-09-20T02:06:47.516Z,10.12
2022-09-20T02:09:32.688Z,10.09
2022-09-20T02:12:34.217Z,10.03
2022-09-20T02:15:03.464Z,10.06
2022-09-20T02:17:38.889Z,10.05
2022-09-20T02:20:09.126Z,10.03
2022-09-20T02:22:56.293Z,9.98
2022-09-20T02:25:31.198Z,9.97
2022-09-20T02:28:06.575Z,9.98
2022-09-20T02:30:57.913Z,9.97
2022-09-20T02:33:43.151Z,9.95
2022-09-20T02:36:37.473Z,9.92
2022-09-20T02:39:20.648Z,9.89
2022-09-20T02:41:55.644Z,9.82
2022-09-20T02:44:38.778Z,9.78
2022-09-20T02:47:33.109Z,9.73
2022-09-20T02:50:05.693Z,9.66
2022-09-20T02:52:43.202Z,9.56
2022-09-20T02:55:49.070Z,9.54
2022-09-20T02:58:18.135Z,9.50
2022-09-20T03:00:54.234Z,9.42
2022-09-20T03:03:29.659Z,9.35
2022-09-20T03:06:35.386Z,9.31
2022-09-20T03:09:18.380Z,9.28
2022-09-20T03:12:03.452Z,9.24
2022-09-20T03:14:37.627Z,9.21
2022-09-20T03:17:36.490Z,9.17
2022-09-20T03:20:25.352Z,9.18
2022-09-20T03:23:05.112Z,9.18
2022-09-20T03:25:43.524Z,9.18
2022-09-20T03:28:34.954Z,9.18
2022-09-20T03:31:07.458Z,9.19
2022-09-20T03:33:47.877Z,9.20
2022-09-20T03:36:51.953Z,9.20
2022-09-20T03:39:54.001Z,9.20
2022-09-20T03:42:25.592Z,9.24
2022-09-20T03:45:11.245Z,9.25
2022-09-20T03:48:08.072Z,9.25
2022-09-20T03:50:34.456Z,9.27
2022-09-20T03:53:26.011Z,9.26
2022-09-20T03:56:20.052Z,9.22
2022-09-20T03:59:18.237Z,9.29
2022-09-20T04:01:59.929Z,9.29
2022-09-20T04:04:52.797Z,9.32
2022-09-20T04:07:26.857Z,9.35
2022-09-20T04:10:02.265Z,9.36
2022-09-20T04:12:56.855Z,9.41
2022-09-20T04:15:37.282Z,9.43
2022-09-20T04:18:28.181Z,9.44
2022-09-20T04:21:05.676Z,9.48
2022-09-20T04:23:43.171Z,9.51
2022-09-20T04:26:10.989Z,9.52
2022-09-20T04:28:47.559Z,9.56
2022-09-20T04:31:43.567Z,9.60
2022-09-20T04:34:51.977Z,9.66
2022-09-20T04:37:38.428Z,9.69
2022-09-20T04:40:23.597Z,9.67
2022-09-20T04:43:27.459Z,9.70
2022-09-20T04:46:06.852Z,9.74
2022-09-20T04:48:51.966Z,9.79
2022-09-20T04:51:37.233Z,9.81
2022-09-20T04:54:15.875Z,9.86
2022-09-20T04:56:42.373Z,9.89
2022-09-20T04:59:10.391Z,9.90
2022-09-20T05:02:30.854Z,9.90
2022-09-20T05:05:42.229Z,9.91
2022-09-20T05:08:29.965Z,9.92
2022-09-20T05:11:14.951Z,9.94
2022-09-20T05:14:05.119Z,9.99
2022-09-20T05:16:58.800Z,10.01
2022-09-20T05:19:26.233Z,10.05
2022-09-20T05:22:46.693Z,10.06
2022-09-20T05:25:52.068Z,10.09
2022-09-20T05:29:01.626Z,10.07
2022-09-20T05:31:40.923Z,10.08
2022-09-20T05:34:33.546Z,10.09
2022-09-20T05:37:24.464Z,10.09
2022-09-20T05:40:19.116Z,10.11
2022-09-20T05:43:11.325Z,10.14
2022-09-20T05:45:57.891Z,10.15
2022-09-20T05:48:49.934Z,10.16
2022-09-20T05:51:34.729Z,10.23
2022-09-20T05:54:36.884Z,10.30
2022-09-20T05:57:27.970Z,10.29
2022-09-20T06:00:00.248Z,10.26
2022-09-20T06:03:04.393Z,10.32
2022-09-20T06:05:49.082Z,10.34
2022-09-20T06:08:44.606Z,10.35
2022-09-20T06:11:33.106Z,10.38
2022-09-20T06:14:17.884Z,10.43
2022-09-20T06:17:03.105Z,10.53
2022-09-20T06:20:02.784Z,10.62
2022-09-20T06:22:42.903Z,10.68
2022-09-20T06:25:09.380Z,10.75
2022-09-20T06:27:45.040Z,10.83
2022-09-20T06:30:30.074Z,10.88
2022-09-20T06:33:13.180Z,10.94
2022-09-20T06:36:23.229Z,11.00
2022-09-20T06:39:22.639Z,11.03
2022-09-20T06:41:49.613Z,11.10
2022-09-20T06:44:16.149Z,11.13
2022-09-20T06:46:42.773Z,11.18
2022-09-20T06:49:09.575Z,11.20
2022-09-20T06:51:38.761Z,11.27
2022-09-20T06:54:11.388Z,11.27
2022-09-20T06:56:38.444Z,11.36
2022-09-20T06:59:08.634Z,11.42
2022-09-20T07:01:35.321Z,11.46
2022-09-20T07:04:02.924Z,11.52
2022-09-20T07:06:29.504Z,11.56
2022-09-20T07:08:56.113Z,11.57
2022-09-20T07:11:23.485Z,11.63
2022-09-20T07:13:52.072Z,11.68
2022-09-20T07:16:18.812Z,11.76
2022-09-20T07:18:45.915Z,11.81
2022-09-20T07:21:18.023Z,11.89
2022-09-20T07:23:51.422Z,11.94
2022-09-20T07:26:25.789Z,12.03
2022-09-20T07:28:53.191Z,12.11
2022-09-20T07:31:22.929Z,12.14
2022-09-20T07:33:49.638Z,12.20
2022-09-20T07:36:16.718Z,12.21
2022-09-20T07:38:50.493Z,12.26
2022-09-20T07:41:19.093Z,12.29
2022-09-20T07:43:46.651Z,12.33
2022-09-20T07:46:15.940Z,12.37
2022-09-20T07:48:42.740Z,12.47
2022-09-20T07:51:13.891Z,12.54
2022-09-20T07:53:41.209Z,12.63
2022-09-20T07:56:15.828Z,12.66
2022-09-20T07:58:43.243Z,12.72
2022-09-20T08:01:12.645Z,12.78
2022-09-20T08:03:40.541Z,12.82
2022-09-20T08:06:15.092Z,12.89
2022-09-20T08:08:42.344Z,12.94
2022-09-20T08:11:22.371Z,12.95
2022-09-20T08:14:07.709Z,12.96
2022-09-20T08:16:40.775Z,12.94
2022-09-20T08:19:07.498Z,12.99
2022-09-20T08:21:35.897Z,13.00
2022-09-20T08:24:03.973Z,13.02
2022-09-20T08:26:35.798Z,13.05
2022-09-20T08:29:02.812Z,13.04
2022-09-20T08:31:34.283Z,13.04
2022-09-20T08:34:03.766Z,13.08
2022-09-20T08:36:36.362Z,13.06
2022-09-20T08:42:12.897Z,13.02
2022-09-20T08:44:59.994Z,13.00
2022-09-20T08:47:36.610Z,12.96
2022-09-20T08:50:09.529Z,12.99
2022-09-20T08:52:39.859Z,12.98
2022-09-20T08:55:36.557Z,13.02
2022-09-20T08:58:08.130Z,13.04
2022-09-20T09:00:37.171Z,12.98
2022-09-20T09:03:12.258Z,12.98
2022-09-20T09:05:44.382Z,12.99
2022-09-20T09:08:16.871Z,13.03
2022-09-20T09:10:56.419Z,13.05
2022-09-20T09:13:34.322Z,13.04
2022-09-20T09:16:06.510Z,13.05
2022-09-20T09:18:39.452Z,13.05
2022-09-20T09:21:07.778Z,13.04
2022-09-20T09:23:47.735Z,12.98
2022-09-20T09:26:21.292Z,12.97
2022-09-20T09:29:07.461Z,12.97
2022-09-20T09:31:34.228Z,12.99
2022-09-20T09:34:01.024Z,13.00
2022-09-20T09:36:27.850Z,12.96
2022-09-20T09:39:16.397Z,12.97
2022-09-20T09:41:43.287Z,12.95
2022-09-20T09:44:20.704Z,12.94
2022-09-20T09:46:47.866Z,12.90
2022-09-20T09:49:24.735Z,12.88
2022-09-20T09:52:16.135Z,12.87
2022-09-20T09:54:51.445Z,12.84
2022-09-20T09:57:36.577Z,12.84
2022-09-20T10:00:21.564Z,12.85
2022-09-20T10:03:04.002Z,12.86
2022-09-20T10:06:06.942Z,12.86
2022-09-20T10:08:58.087Z,12.84
2022-09-20T10:11:37.971Z,12.86
2022-09-20T10:14:28.305Z,12.84
2022-09-20T10:17:10.050Z,12.84
2022-09-20T10:19:40.511Z,12.83
2022-09-20T10:22:24.584Z,12.77
2022-09-20T10:25:32.115Z,12.76
2022-09-20T10:28:24.571Z,12.77
2022-09-20T10:30:56.946Z,12.82
2022-09-20T10:33:37.558Z,12.88
2022-09-20T10:36:32.309Z,12.98
2022-09-20T10:39:22.773Z,13.05
2022-09-20T10:42:26.028Z,13.18
2022-09-20T10:45:11.578Z,13.24
2022-09-20T10:48:18.423Z,13.28
2022-09-20T10:50:52.308Z,13.32
2022-09-20T10:53:37.343Z,13.33
2022-09-20T10:56:24.020Z,13.30
2022-09-20T10:58:56.847Z,13.29
2022-09-20T11:01:31.168Z,13.29
2022-09-20T11:04:09.737Z,13.26
2022-09-20T11:06:51.736Z,13.22
2022-09-20T11:09:23.351Z,13.18
2022-09-20T11:11:55.953Z,13.13
2022-09-20T11:14:33.417Z,13.07
2022-09-20T11:17:17.342Z,13.06
2022-09-20T11:19:51.497Z,13.05
2022-09-20T11:22:32.649Z,13.03
2022-09-20T11:25:20.401Z,13.03
2022-09-20T11:28:00.963Z,13.02
2022-09-20T11:30:30.236Z,13.03
2022-09-20T11:33:21.696Z,13.03
2022-09-20T11:35:51.704Z,13.06
2022-09-20T11:38:25.095Z,13.06
2022-09-20T11:41:28.338Z,13.06
2022-09-20T11:44:12.180Z,13.07
2022-09-20T11:46:45.185Z,13.05
2022-09-20T11:49:19.793Z,13.02
2022-09-20T11:52:05.258Z,13.03
2022-09-20T11:54:37.801Z,12.97
2022-09-20T11:57:05.979Z,12.91
2022-09-20T11:59:33.974Z,12.89
2022-09-20T12:02:04.347Z,12.87
2022-09-20T12:04:35.665Z,12.83
2022-09-20T12:07:18.270Z,12.83
2022-09-20T12:10:01.291Z,12.79
2022-09-20T12:12:45.299Z,12.76
2022-09-20T12:15:27.054Z,12.70
2022-09-20T12:17:53.562Z,12.65
2022-09-20T12:20:35.050Z,12.59
2022-09-20T12:23:42.582Z,12.53
2022-09-20T12:26:36.895Z,12.44
2022-09-20T12:29:23.629Z,12.39
2022-09-20T12:31:52.471Z,12.32
2022-09-20T12:34:18.950Z,12.30
2022-09-20T12:36:54.250Z,12.27
2022-09-20T12:39:30.048Z,12.26
2022-09-20T12:42:03.639Z,12.25
2022-09-20T12:44:48.874Z,12.24
2022-09-20T12:47:26.912Z,12.24
2022-09-20T12:50:15.357Z,12.18
2022-09-20T12:52:50.800Z,12.24
2022-09-20T12:55:41.099Z,12.22
2022-09-20T12:58:19.783Z,12.22
2022-09-20T13:00:48.975Z,12.21
2022-09-20T13:03:15.492Z,12.18
2022-09-20T13:05:46.749Z,12.15
2022-09-20T13:08:27.298Z,12.17
2022-09-20T13:11:09.424Z,12.13
2022-09-20T13:13:44.290Z,12.12
2022-09-20T13:16:34.215Z,12.13
2022-09-20T13:19:07.950Z,12.18
2022-09-20T13:21:38.455Z,12.23
2022-09-20T13:24:06.350Z,12.25
2022-09-20T13:26:47.030Z,12.24
2022-09-20T13:29:29.290Z,12.25
2022-09-20T13:31:56.497Z,12.19
2022-09-20T13:34:25.049Z,12.20
2022-09-20T13:36:58.246Z,12.19
2022-09-20T13:39:29.619Z,12.19
2022-09-20T13:42:07.017Z,12.14
2022-09-20T13:44:34.851Z,12.10
2022-09-20T13:47:01.686Z,12.12
2022-09-20T13:49:32.582Z,12.10
2022-09-20T13:51:59.534Z,12.08
2022-09-20T13:54:27.612Z,12.07
2022-09-20T13:57:03.676Z,12.03
2022-09-20T13:59:35.208Z,11.97
2022-09-20T14:02:02.896Z,11.97
2022-09-20T14:04:31.456Z,11.94
2022-09-20T14:07:00.603Z,11.94
2022-09-20T14:09:32.876Z,11.91
2022-09-20T14:12:00.638Z,11.88
2022-09-20T14:14:27.927Z,11.85
2022-09-20T14:16:57.429Z,11.85
2022-09-20T14:19:32.888Z,11.83
2022-09-20T14:22:03.937Z,11.83
2022-09-20T14:24:37.085Z,11.82
2022-09-20T14:27:17.130Z,11.76
2022-09-20T14:29:46.274Z,11.73
2022-09-20T14:32:18.882Z,11.71
2022-09-20T14:35:00.647Z,11.68
2022-09-20T14:37:42.438Z,11.67
2022-09-20T14:40:30.455Z,11.67
2022-09-20T14:43:05.232Z,11.64
2022-09-20T14:45:33.352Z,11.65
2022-09-20T14:48:09.372Z,11.60
2022-09-20T14:50:43.393Z,11.59
2022-09-20T14:53:10.762Z,11.59
2022-09-20T14:55:54.507Z,11.59
2022-09-20T14:58:21.042Z,11.57
2022-09-20T15:00:54.119Z,11.56
2022-09-20T15:03:27.612Z,11.54
2022-09-20T15:05:54.278Z,11.54
2022-09-20T15:08:20.864Z,11.56
2022-09-20T15:10:47.918Z,11.55
2022-09-20T15:13:14.958Z,11.56
2022-09-20T15:15:44.209Z,11.53
2022-09-20T15:18:22.866Z,11.51
2022-09-20T15:20:53.286Z,11.48
2022-09-20T15:23:20.433Z,11.50
2022-09-20T15:25:50.778Z,11.49
2022-09-20T15:28:17.449Z,11.47
2022-09-20T15:30:45.737Z,11.45
2022-09-20T15:33:13.221Z,11.45
2022-09-20T15:35:41.685Z,11.44
2022-09-20T15:38:11.638Z,11.41
2022-09-20T15:40:42.794Z,11.32
2022-09-20T15:43:13.300Z,11.32
2022-09-20T15:45:50.935Z,11.33
2022-09-20T15:48:22.207Z,11.29
2022-09-20T15:51:08.735Z,11.27
2022-09-20T15:53:38.547Z,11.25
2022-09-20T15:56:19.322Z,11.22
2022-09-20T15:58:48.407Z,11.18
2022-09-20T16:01:18.652Z,11.15
2022-09-20T16:03:46.530Z,11.16
2022-09-20T16:06:13.822Z,11.11
2022-09-20T16:08:42.516Z,11.11
2022-09-20T16:11:13.806Z,11.06
2022-09-20T16:13:40.721Z,11.01
2022-09-20T16:16:10.137Z,11.01
2022-09-20T16:18:55.612Z,10.98
2022-09-20T16:21:22.530Z,10.98
2022-09-20T16:23:56.803Z,11.00
2022-09-20T16:26:25.868Z,11.01
2022-09-20T16:28:54.356Z,11.03
2022-09-20T16:31:50.035Z,11.04
2022-09-20T16:34:19.435Z,11.03
2022-09-20T16:36:47.571Z,11.06
2022-09-20T16:39:15.488Z,11.06
2022-09-20T16:41:43.549Z,11.07
2022-09-20T16:44:10.110Z,11.04
2022-09-20T16:46:37.400Z,11.04
2022-09-20T16:49:06.343Z,11.08
2022-09-20T16:51:35.793Z,11.07
2022-09-20T16:54:09.687Z,11.08
2022-09-20T16:56:36.404Z,11.11
2022-09-20T16:59:04.929Z,11.10
2022-09-20T17:01:32.054Z,11.08
2022-09-20T17:03:58.982Z,11.07
2022-09-20T17:06:26.808Z,11.11
2022-09-20T17:08:58.856Z,11.09
2022-09-20T17:11:28.115Z,11.04
2022-09-20T17:13:55.762Z,11.09
2022-09-20T17:16:30.422Z,11.08
2022-09-20T17:19:01.028Z,11.08
2022-09-20T17:21:29.959Z,11.06
2022-09-20T17:23:58.738Z,10.99
2022-09-20T17:26:26.485Z,11.01
2022-09-20T17:28:56.309Z,11.03
2022-09-20T17:31:28.565Z,11.06
2022-09-20T17:33:55.774Z,11.01
2022-09-20T17:36:22.405Z,11.01
2022-09-20T17:38:54.268Z,10.93
2022-09-20T17:41:21.902Z,10.91
2022-09-20T17:43:52.354Z,10.87
2022-09-20T17:46:22.905Z,10.89
2022-09-20T17:48:54.344Z,10.90
2022-09-20T17:51:22.460Z,10.90
2022-09-20T17:53:49.071Z,10.94
2022-09-20T17:56:15.827Z,10.94
2022-09-20T17:58:42.403Z,10.95
2022-09-20T18:01:15.167Z,10.95
2022-09-20T18:03:45.384Z,10.95
2022-09-20T18:06:30.130Z,10.94
2022-09-20T18:09:02.511Z,10.92
2022-09-20T18:11:34.172Z,10.92
2022-09-20T18:14:02.999Z,10.92
2022-09-20T18:16:31.171Z,10.92
2022-09-20T18:18:59.888Z,10.94
2022-09-20T18:21:28.705Z,10.93
2022-09-20T18:23:56.002Z,10.94
2022-09-20T18:26:24.967Z,10.94
2022-09-20T18:29:01.450Z,10.92
2022-09-20T18:31:35.973Z,10.87
2022-09-20T18:34:05.503Z,10.87
2022-09-20T18:36:34.100Z,10.87
2022-09-20T18:39:00.699Z,10.80
2022-09-20T18:41:36.744Z,10.84
2022-09-20T18:44:07.172Z,10.82
2022-09-20T18:46:37.978Z,10.84
2022-09-20T18:49:08.677Z,10.85
2022-09-20T18:51:39.709Z,10.87
2022-09-20T18:54:10.026Z,10.86
2022-09-20T18:56:39.420Z,10.85
2022-09-20T18:59:08.517Z,10.86
2022-09-20T19:01:44.372Z,10.84
2022-09-20T19:04:24.660Z,10.84
2022-09-20T19:07:16.084Z,10.83
2022-09-20T19:09:53.285Z,10.81
2022-09-20T19:12:31.849Z,10.80
2022-09-20T19:15:35.802Z,10.82
2022-09-20T19:18:27.445Z,10.81
2022-09-20T19:21:03.057Z,10.79
2022-09-20T19:24:10.994Z,10.80
2022-09-20T19:26:38.635Z,10.82
2022-09-20T19:29:18.964Z,10.76
2022-09-20T19:31:48.477Z,10.82
2022-09-20T19:34:23.892Z,10.82
2022-09-20T19:37:02.532Z,10.85
2022-09-20T19:39:48.024Z,10.85
2022-09-20T19:42:33.436Z,10.85
2022-09-20T19:45:09.080Z,10.83
2022-09-20T19:47:57.041Z,10.84
2022-09-20T19:50:33.187Z,10.82
2022-09-20T19:53:03.955Z,10.81
2022-09-20T19:55:32.181Z,10.84
2022-09-20T19:57:59.114Z,10.81
2022-09-20T20:00:26.186Z,10.81
2022-09-20T20:02:53.949Z,10.77
2022-09-20T20:05:27.707Z,10.77
2022-09-20T20:08:16.169Z,10.74
2022-09-20T20:11:09.750Z,10.72
2022-09-20T20:14:04.453Z,10.69
2022-09-20T20:16:52.369Z,10.66
2022-09-20T20:19:40.749Z,10.68
2022-09-20T20:22:31.742Z,10.67
2022-09-20T20:24:58.377Z,10.62
2022-09-20T20:27:28.423Z,10.59
2022-09-20T20:29:55.907Z,10.58
2022-09-20T20:32:22.998Z,10.58
2022-09-20T20:34:49.555Z,10.59
2022-09-20T20:37:18.233Z,10.55
2022-09-20T20:39:44.819Z,10.58
2022-09-20T20:42:12.825Z,10.57
2022-09-20T20:44:40.068Z,10.58
2022-09-20T20:47:07.140Z,10.53
2022-09-20T20:49:33.820Z,10.58
2022-09-20T20:52:04.768Z,10.58
2022-09-20T20:54:32.273Z,10.59
2022-09-20T20:56:59.442Z,10.58
2022-09-20T20:59:26.425Z,10.54
2022-09-20T21:01:53.025Z,10.50
2022-09-20T21:04:19.980Z,10.49
2022-09-20T21:06:46.695Z,10.44
2022-09-20T21:09:13.533Z,10.41
2022-09-20T21:11:44.690Z,10.37
2022-09-20T21:14:12.542Z,10.35
2022-09-20T21:16:45.045Z,10.35
2022-09-20T21:19:15.658Z,10.36
2022-09-20T21:21:43.825Z,10.37
2022-09-20T21:24:12.850Z,10.36
2022-09-20T21:26:40.207Z,10.38
2022-09-20T21:29:10.924Z,10.37
2022-09-20T21:31:43.059Z,10.34
2022-09-20T21:34:12.625Z,10.35
2022-09-20T21:36:43.963Z,10.32
2022-09-20T21:39:10.687Z,10.34
2022-09-20T21:41:38.549Z,10.34
2022-09-20T21:44:06.616Z,10.28
2022-09-20T21:46:35.354Z,10.27
2022-09-20T21:49:04.063Z,10.25
2022-09-20T21:51:31.799Z,10.23
2022-09-20T21:54:01.459Z,10.24
2022-09-20T21:56:32.890Z,10.26
2022-09-20T21:59:01.990Z,10.27
2022-09-20T22:01:29.393Z,10.28
2022-09-20T22:03:59.144Z,10.26
2022-09-20T22:06:28.566Z,10.29
2022-09-20T22:09:03.826Z,10.29
2022-09-20T22:11:32.853Z,10.32
2022-09-20T22:14:00.162Z,10.29
2022-09-20T22:16:29.518Z,10.27
2022-09-20T22:18:56.145Z,10.24
2022-09-20T22:21:31.378Z,10.27
2022-09-20T22:24:00.769Z,10.26
2022-09-20T22:26:39.096Z,10.25
2022-09-20T22:29:06.566Z,10.29
2022-09-20T22:31:36.218Z,10.28
2022-09-20T22:34:05.240Z,10.28
2022-09-20T22:36:37.733Z,10.26
2022-09-20T22:39:07.520Z,10.24
2022-09-20T22:41:34.781Z,10.24
2022-09-20T22:44:01.513Z,10.27
2022-09-20T22:46:30.023Z,10.25
2022-09-20T22:48:56.864Z,10.23
2022-09-20T22:51:33.216Z,10.21
2022-09-20T22:54:03.878Z,10.14
2022-09-20T22:56:31.204Z,10.05
2022-09-20T22:59:00.593Z,10.00
2022-09-20T23:01:29.658Z,9.89
2022-09-20T23:04:07.671Z,9.85
2022-09-20T23:06:49.234Z,9.80
2022-09-20T23:09:18.009Z,9.76
2022-09-20T23:11:45.064Z,9.73
2022-09-20T23:14:14.179Z,9.70
2022-09-20T23:16:41.085Z,9.68
2022-09-20T23:19:08.724Z,9.67
2022-09-20T23:21:37.419Z,9.68
2022-09-20T23:24:06.500Z,9.68
2022-09-20T23:26:34.498Z,9.67
2022-09-20T23:29:09.334Z,9.65
2022-09-20T23:31:37.687Z,9.68
2022-09-20T23:34:06.085Z,9.67
2022-09-20T23:36:35.150Z,9.65
2022-09-20T23:39:01.728Z,9.64
2022-09-20T23:41:29.107Z,9.65
2022-09-20T23:43:55.922Z,9.58
2022-09-20T23:46:23.955Z,9.62
2022-09-20T23:48:51.086Z,9.59
2022-09-20T23:51:23.422Z,9.57
2022-09-20T23:53:51.777Z,9.56
2022-09-20T23:56:19.774Z,9.55
2022-09-20T23:58:46.406Z,9.53
